createdAt,value
2023-03-13T00:01:12.216Z,27.80
2023-03-13T00:04:20.176Z,27.80
2023-03-13T00:07:29.674Z,27.80
2023-03-13T00:10:38.292Z,27.80
2023-03-13T00:13:46.199Z,27.80
2023-03-13T00:16:54.407Z,27.80
2023-03-13T00:20:02.620Z,27.80
2023-03-13T00:23:12.122Z,27.80
2023-03-13T00:26:21.182Z,27.80
2023-03-13T00:29:29.371Z,27.80
2023-03-13T00:32:42.088Z,27.80
2023-03-13T00:35:50.824Z,27.80
2023-03-13T00:39:00.284Z,27.90
2023-03-13T00:42:08.661Z,27.90
2023-03-13T00:45:16.991Z,27.90
2023-03-13T00:48:25.243Z,27.90
2023-03-13T00:51:33.572Z,27.90
2023-03-13T00:54:43.110Z,27.90
2023-03-13T00:57:50.802Z,27.90
2023-03-13T01:00:58.981Z,27.90
2023-03-13T01:04:07.824Z,27.90
2023-03-13T01:07:15.813Z,27.90
2023-03-13T01:10:25.081Z,27.90
2023-03-13T01:13:33.950Z,28.00
2023-03-13T01:16:42.249Z,28.00
2023-03-13T01:19:50.416Z,28.10
2023-03-13T01:22:58.524Z,28.00
2023-03-13T01:26:08.676Z,28.00
2023-03-13T01:29:16.637Z,28.10
2023-03-13T01:32:24.935Z,28.10
2023-03-13T01:35:33.060Z,28.00
2023-03-13T01:38:41.192Z,28.10
2023-03-13T01:41:50.407Z,28.10
2023-03-13T01:44:58.838Z,28.10
2023-03-13T01:48:07.302Z,28.10
2023-03-13T01:51:43.074Z,28.10
2023-03-13T01:54:52.702Z,28.10
2023-03-13T01:58:02.659Z,28.10
2023-03-13T02:01:10.962Z,28.10
2023-03-13T02:04:18.886Z,28.10
2023-03-13T02:07:29.286Z,28.10
2023-03-13T02:10:40.823Z,28.10
2023-03-13T02:13:50.956Z,28.10
2023-03-13T02:16:59.515Z,28.10
2023-03-13T02:20:08.697Z,28.10
2023-03-13T02:23:21.049Z,28.10
2023-03-13T02:26:30.968Z,28.10
2023-03-13T02:29:40.061Z,28.10
2023-03-13T02:32:48.755Z,28.10
2023-03-13T02:35:56.949Z,28.10
2023-03-13T02:39:05.993Z,28.10
2023-03-13T02:42:15.925Z,28.20
2023-03-13T02:45:24.445Z,28.20
2023-03-13T02:48:34.268Z,28.20
2023-03-13T02:51:43.477Z,28.20
2023-03-13T02:54:53.855Z,28.20
2023-03-13T02:58:04.308Z,28.20
2023-03-13T03:01:16.608Z,28.20
2023-03-13T03:04:26.341Z,28.20
2023-03-13T03:07:36.795Z,28.30
2023-03-13T03:10:46.294Z,28.20
2023-03-13T03:13:55.885Z,28.30
2023-03-13T03:17:04.764Z,28.30
2023-03-13T03:20:13.388Z,28.30
2023-03-13T03:23:24.089Z,28.30
2023-03-13T03:26:32.292Z,28.40
2023-03-13T03:29:42.274Z,28.40
2023-03-13T03:32:50.409Z,28.40
2023-03-13T03:36:01.126Z,28.40
2023-03-13T03:39:10.901Z,28.40
2023-03-13T03:42:18.859Z,28.40
2023-03-13T03:45:28.406Z,28.40
2023-03-13T03:48:36.776Z,28.50
2023-03-13T03:51:48.630Z,28.50
2023-03-13T03:55:00.171Z,28.50
2023-03-13T03:58:08.733Z,28.50
2023-03-13T04:01:36.913Z,28.50
2023-03-13T04:04:46.049Z,28.50
2023-03-13T04:08:02.102Z,28.50
2023-03-13T04:11:10.616Z,28.60
2023-03-13T04:14:22.421Z,28.60
2023-03-13T04:17:34.943Z,28.60
2023-03-13T04:20:43.381Z,28.60
2023-03-13T04:23:51.763Z,28.60
2023-03-13T04:26:59.794Z,28.70
2023-03-13T04:30:09.623Z,28.70
2023-03-13T04:33:31.099Z,28.70
2023-03-13T04:37:01.928Z,28.70
2023-03-13T04:40:28.558Z,28.70
2023-03-13T04:43:46.651Z,28.70
2023-03-13T04:47:17.296Z,28.80
2023-03-13T04:50:42.784Z,28.80
2023-03-13T04:54:22.692Z,28.80
2023-03-13T04:57:42.181Z,28.80
2023-03-13T05:01:15.728Z,29.30
2023-03-13T05:04:42.313Z,28.90
2023-03-13T05:08:08.732Z,28.90
2023-03-13T05:11:24.563Z,28.90
2023-03-13T05:14:44.372Z,29.00
2023-03-13T05:18:11.057Z,29.00
2023-03-13T05:21:27.668Z,29.00
2023-03-13T05:24:57.101Z,29.00
2023-03-13T05:28:23.601Z,29.00
2023-03-13T05:31:51.745Z,29.00
2023-03-13T05:35:20.022Z,29.00
2023-03-13T05:38:36.934Z,29.00
2023-03-13T05:42:24.280Z,29.00
2023-03-13T05:45:50.671Z,29.50
2023-03-13T05:49:17.205Z,29.00
2023-03-13T05:52:43.799Z,29.00
2023-03-13T05:56:03.548Z,29.00
2023-03-13T05:59:31.608Z,29.00
2023-03-13T06:02:58.565Z,29.00
2023-03-13T06:06:13.888Z,29.00
2023-03-13T06:09:27.577Z,29.10
2023-03-13T06:12:37.892Z,29.10
2023-03-13T06:15:54.039Z,29.10
2023-03-13T06:19:25.161Z,29.10
2023-03-13T06:22:33.375Z,29.10
2023-03-13T06:25:41.566Z,29.20
2023-03-13T06:28:50.165Z,29.10
2023-03-13T06:31:59.514Z,29.20
2023-03-13T06:35:08.051Z,29.20
2023-03-13T06:38:15.918Z,29.20
2023-03-13T06:41:24.452Z,29.20
2023-03-13T06:44:32.327Z,29.20
2023-03-13T06:47:41.873Z,29.20
2023-03-13T06:50:50.096Z,29.20
2023-03-13T06:53:58.228Z,29.20
2023-03-13T06:57:06.610Z,29.30
2023-03-13T07:00:15.491Z,29.80
2023-03-13T07:03:25.308Z,29.30
2023-03-13T07:06:33.206Z,29.30
2023-03-13T07:09:41.417Z,29.60
2023-03-13T07:12:49.534Z,29.80
2023-03-13T07:15:57.706Z,29.90
2023-03-13T07:19:07.027Z,30.00
2023-03-13T07:22:15.041Z,30.00
2023-03-13T07:25:23.185Z,30.00
2023-03-13T07:28:31.860Z,29.90
2023-03-13T07:31:39.916Z,29.90
2023-03-13T07:34:49.184Z,29.90
2023-03-13T07:37:57.346Z,29.90
2023-03-13T07:41:05.807Z,29.90
2023-03-13T07:44:14.066Z,29.90
2023-03-13T07:47:22.177Z,29.90
2023-03-13T07:50:31.393Z,29.90
2023-03-13T07:53:39.451Z,29.90
2023-03-13T07:56:47.444Z,29.90
2023-03-13T07:59:55.690Z,29.90
2023-03-13T08:03:06.757Z,29.90
2023-03-13T08:06:17.063Z,29.90
2023-03-13T08:09:25.161Z,29.90
2023-03-13T08:12:33.222Z,29.90
2023-03-13T08:15:41.270Z,29.90
2023-03-13T08:18:49.859Z,29.90
2023-03-13T08:21:59.492Z,29.90
2023-03-13T08:25:07.808Z,29.90
2023-03-13T08:28:16.060Z,29.90
2023-03-13T08:31:25.128Z,29.90
2023-03-13T08:34:35.087Z,30.00
2023-03-13T08:37:44.617Z,30.00
2023-03-13T08:40:57.743Z,30.00
2023-03-13T08:44:06.105Z,30.00
2023-03-13T08:47:14.159Z,30.00
2023-03-13T08:50:22.368Z,30.00
2023-03-13T08:53:31.814Z,30.00
2023-03-13T08:56:40.997Z,30.00
2023-03-13T08:59:49.721Z,30.00
2023-03-13T09:02:58.731Z,30.00
2023-03-13T09:06:07.221Z,30.00
2023-03-13T09:09:16.737Z,30.00
2023-03-13T09:12:30.679Z,30.10
2023-03-13T09:15:39.478Z,30.00
2023-03-13T09:18:47.705Z,30.00
2023-03-13T09:21:55.477Z,30.10
2023-03-13T09:25:05.425Z,30.10
2023-03-13T09:28:13.399Z,30.10
2023-03-13T09:31:22.211Z,30.80
2023-03-13T09:34:30.131Z,30.20
2023-03-13T09:37:38.321Z,30.10
2023-03-13T09:40:59.671Z,30.10
2023-03-13T09:44:14.370Z,30.20
2023-03-13T09:47:24.060Z,30.20
2023-03-13T09:50:34.156Z,30.20
2023-03-13T09:53:43.403Z,30.20
2023-03-13T09:56:55.006Z,30.20
2023-03-13T10:00:06.611Z,30.20
2023-03-13T10:03:18.152Z,30.20
2023-03-13T10:06:26.342Z,30.20
2023-03-13T10:09:34.804Z,30.20
2023-03-13T10:12:46.183Z,30.20
2023-03-13T10:15:56.766Z,30.20
2023-03-13T10:19:12.115Z,30.90
2023-03-13T10:22:21.012Z,30.30
2023-03-13T10:25:31.191Z,30.30
2023-03-13T10:28:40.722Z,30.30
2023-03-13T10:31:52.995Z,30.30
2023-03-13T10:35:01.915Z,30.30
2023-03-13T10:38:11.711Z,30.30
2023-03-13T10:41:23.876Z,30.40
2023-03-13T10:44:34.089Z,30.40
2023-03-13T10:47:41.931Z,30.40
2023-03-13T10:50:50.773Z,30.40
2023-03-13T10:53:58.989Z,30.50
2023-03-13T10:57:21.121Z,30.50
2023-03-13T11:00:36.731Z,30.50
2023-03-13T11:03:44.790Z,30.50
2023-03-13T11:06:53.649Z,30.50
2023-03-13T11:10:03.544Z,30.60
2023-03-13T11:13:12.468Z,30.60
2023-03-13T11:16:23.401Z,30.60
2023-03-13T11:19:53.521Z,30.60
2023-03-13T11:23:12.930Z,30.60
2023-03-13T11:26:23.550Z,30.60
2023-03-13T11:29:34.493Z,30.70
2023-03-13T11:32:44.841Z,30.70
2023-03-13T11:35:55.206Z,30.70
2023-03-13T11:39:08.992Z,30.70
2023-03-13T11:42:39.931Z,30.70
2023-03-13T11:46:00.680Z,30.70
2023-03-13T11:49:39.704Z,30.80
2023-03-13T11:52:56.613Z,30.80
2023-03-13T11:56:08.992Z,30.80
2023-03-13T11:59:29.845Z,30.90
2023-03-13T12:02:41.101Z,30.90
2023-03-13T12:05:52.672Z,30.90
2023-03-13T12:09:06.891Z,30.90
2023-03-13T12:12:18.329Z,31.00
2023-03-13T12:15:27.874Z,31.00
2023-03-13T12:18:36.725Z,31.10
2023-03-13T12:21:48.502Z,31.10
2023-03-13T12:24:58.194Z,31.10
2023-03-13T12:28:12.412Z,31.10
2023-03-13T12:31:23.559Z,31.20
2023-03-13T12:34:34.840Z,31.20
2023-03-13T12:37:46.632Z,31.20
2023-03-13T12:40:59.168Z,31.20
2023-03-13T12:44:09.654Z,31.30
2023-03-13T12:47:19.335Z,31.30
2023-03-13T12:50:32.153Z,31.30
2023-03-13T12:53:47.655Z,31.40
2023-03-13T12:57:04.313Z,31.40
2023-03-13T13:00:14.552Z,31.40
2023-03-13T13:03:27.943Z,31.40
2023-03-13T13:07:06.974Z,31.50
2023-03-13T13:10:19.801Z,31.50
2023-03-13T13:13:31.885Z,31.50
2023-03-13T13:16:41.124Z,31.50
2023-03-13T13:19:49.123Z,31.60
2023-03-13T13:22:57.008Z,31.60
2023-03-13T13:26:46.749Z,31.70
2023-03-13T13:29:57.047Z,31.80
2023-03-13T13:33:38.107Z,31.80
2023-03-13T13:36:46.205Z,32.00
2023-03-13T13:39:54.660Z,31.90
2023-03-13T13:43:03.353Z,31.80
2023-03-13T13:46:23.890Z,31.80
2023-03-13T13:49:37.703Z,31.80
2023-03-13T13:52:46.929Z,31.90
2023-03-13T13:56:00.740Z,31.90
2023-03-13T13:59:32.681Z,31.90
2023-03-13T14:02:50.519Z,32.00
2023-03-13T14:06:00.708Z,32.10
2023-03-13T14:09:17.052Z,32.60
2023-03-13T14:12:29.422Z,32.10
2023-03-13T14:15:37.831Z,32.10
2023-03-13T14:18:47.337Z,32.10
2023-03-13T14:22:02.452Z,32.20
2023-03-13T14:25:10.465Z,32.20
2023-03-13T14:28:19.916Z,32.20
2023-03-13T14:31:29.379Z,32.30
2023-03-13T14:34:38.778Z,32.30
2023-03-13T14:37:47.317Z,32.30
2023-03-13T14:40:56.364Z,32.30
2023-03-13T14:44:06.352Z,32.30
2023-03-13T14:47:21.119Z,32.30
2023-03-13T14:50:30.342Z,32.40
2023-03-13T14:53:38.317Z,32.40
2023-03-13T14:56:46.422Z,32.40
2023-03-13T14:59:54.677Z,32.40
2023-03-13T15:03:22.771Z,32.40
2023-03-13T15:06:32.210Z,32.50
2023-03-13T15:09:43.228Z,32.50
2023-03-13T15:12:51.957Z,32.50
2023-03-13T15:16:00.481Z,32.50
2023-03-13T15:19:09.237Z,32.50
2023-03-13T15:22:18.949Z,32.50
2023-03-13T15:25:27.247Z,32.50
2023-03-13T15:28:35.455Z,32.50
2023-03-13T15:31:43.550Z,32.50
2023-03-13T15:34:51.910Z,32.60
2023-03-13T15:38:01.973Z,32.50
2023-03-13T15:41:10.283Z,32.60
2023-03-13T15:44:18.396Z,32.60
2023-03-13T15:47:27.546Z,32.60
2023-03-13T15:50:35.492Z,32.80
2023-03-13T15:53:46.105Z,32.80
2023-03-13T15:56:54.378Z,32.90
2023-03-13T16:00:02.715Z,32.80
2023-03-13T16:03:15.201Z,32.90
2023-03-13T16:06:30.964Z,33.00
2023-03-13T16:09:40.939Z,33.10
2023-03-13T16:12:49.361Z,33.00
2023-03-13T16:15:58.377Z,33.10
2023-03-13T16:19:07.692Z,33.80
2023-03-13T16:22:17.344Z,33.30
2023-03-13T16:25:26.691Z,33.40
2023-03-13T16:28:34.627Z,33.40
2023-03-13T16:31:42.689Z,33.60
2023-03-13T16:34:50.645Z,33.80
2023-03-13T16:37:59.268Z,34.00
2023-03-13T16:41:09.947Z,34.00
2023-03-13T16:44:18.164Z,34.20
2023-03-13T16:47:28.401Z,34.50
2023-03-13T16:50:37.191Z,34.60
2023-03-13T16:53:46.456Z,34.50
2023-03-13T16:56:55.810Z,34.60
2023-03-13T17:00:05.089Z,34.50
2023-03-13T17:03:13.054Z,35.00
2023-03-13T17:06:22.040Z,34.40
2023-03-13T17:09:30.217Z,34.30
2023-03-13T17:12:39.718Z,34.30
2023-03-13T17:15:47.677Z,34.20
2023-03-13T17:18:56.125Z,34.20
2023-03-13T17:22:04.391Z,34.20
2023-03-13T17:25:12.394Z,34.10
2023-03-13T17:28:21.932Z,34.10
2023-03-13T17:31:30.660Z,34.10
2023-03-13T17:34:39.129Z,34.00
2023-03-13T17:37:47.068Z,34.00
2023-03-13T17:40:55.044Z,34.00
2023-03-13T17:44:04.663Z,34.00
2023-03-13T17:47:16.793Z,34.50
2023-03-13T17:50:26.383Z,34.00
2023-03-13T17:53:34.577Z,34.00
2023-03-13T17:56:42.823Z,33.90
2023-03-13T17:59:52.157Z,34.00
2023-03-13T18:03:00.398Z,34.00
2023-03-13T18:06:18.160Z,34.00
2023-03-13T18:09:26.372Z,34.10
2023-03-13T18:12:34.845Z,34.10
2023-03-13T18:15:44.075Z,34.00
2023-03-13T18:18:52.341Z,34.60
2023-03-13T18:22:00.510Z,34.00
2023-03-13T18:25:09.607Z,33.90
2023-03-13T18:28:17.665Z,33.80
2023-03-13T18:31:28.881Z,33.80
2023-03-13T18:34:36.731Z,33.80
2023-03-13T18:37:45.634Z,33.80
2023-03-13T18:40:53.672Z,33.80
2023-03-13T18:44:02.614Z,33.80
2023-03-13T18:47:13.424Z,33.80
2023-03-13T18:50:25.128Z,34.00
2023-03-13T18:53:33.245Z,34.10
2023-03-13T18:56:41.415Z,34.10
2023-03-13T18:59:49.526Z,34.00
2023-03-13T19:02:58.861Z,34.00
2023-03-13T19:06:21.560Z,34.10
2023-03-13T19:09:43.203Z,34.10
2023-03-13T19:12:52.043Z,34.20
2023-03-13T19:16:00.344Z,34.20
2023-03-13T19:19:13.337Z,34.50
2023-03-13T19:22:21.217Z,34.70
2023-03-13T19:25:29.460Z,35.00
2023-03-13T19:28:37.610Z,35.30
2023-03-13T19:31:46.181Z,35.20
2023-03-13T19:34:55.960Z,35.20
2023-03-13T19:38:04.022Z,35.50
2023-03-13T19:41:12.674Z,35.70
2023-03-13T19:44:21.020Z,35.90
2023-03-13T19:47:28.924Z,35.90
2023-03-13T19:50:38.735Z,35.90
2023-03-13T19:53:46.530Z,35.90
2023-03-13T19:56:54.681Z,35.90
2023-03-13T20:00:03.414Z,36.00
2023-03-13T20:03:20.183Z,36.00
2023-03-13T20:06:30.217Z,36.00
2023-03-13T20:09:38.071Z,36.10
2023-03-13T20:12:46.441Z,36.10
2023-03-13T20:15:54.371Z,36.10
2023-03-13T20:19:02.219Z,36.20
2023-03-13T20:22:11.760Z,36.10
2023-03-13T20:25:19.508Z,36.10
2023-03-13T20:28:27.561Z,36.00
2023-03-13T20:31:35.534Z,36.00
2023-03-13T20:34:43.623Z,36.00
2023-03-13T20:37:54.589Z,35.90
2023-03-13T20:41:02.734Z,35.90
2023-03-13T20:44:10.990Z,35.80
2023-03-13T20:47:19.509Z,35.90
2023-03-13T20:50:27.773Z,35.80
2023-03-13T20:53:37.588Z,35.80
2023-03-13T20:56:45.812Z,35.80
2023-03-13T20:59:53.820Z,35.80
2023-03-13T21:03:01.900Z,35.80
2023-03-13T21:06:10.941Z,35.80
2023-03-13T21:09:20.282Z,35.70
2023-03-13T21:12:29.140Z,35.70
2023-03-13T21:15:37.423Z,35.70
2023-03-13T21:18:45.746Z,35.70
2023-03-13T21:21:53.852Z,35.70
2023-03-13T21:25:04.906Z,35.70
2023-03-13T21:28:12.845Z,35.70
2023-03-13T21:31:21.074Z,35.70
2023-03-13T21:34:29.416Z,35.70
2023-03-13T21:37:37.469Z,35.80
2023-03-13T21:40:46.969Z,35.80
2023-03-13T21:43:55.829Z,35.80
2023-03-13T21:47:04.035Z,35.80
2023-03-13T21:50:13.345Z,35.70
2023-03-13T21:53:21.400Z,35.60
2023-03-13T21:56:30.795Z,35.60
2023-03-13T21:59:38.982Z,35.60
2023-03-13T22:02:47.285Z,35.60
2023-03-13T22:05:55.600Z,35.50
2023-03-13T22:09:03.914Z,35.50
2023-03-13T22:12:13.710Z,35.50
2023-03-13T22:15:21.908Z,35.40
2023-03-13T22:18:30.028Z,35.40
2023-03-13T22:21:37.942Z,35.40
2023-03-13T22:24:46.421Z,35.30
2023-03-13T22:27:56.003Z,35.30
2023-03-13T22:31:04.596Z,35.30
2023-03-13T22:34:12.736Z,35.30
2023-03-13T22:37:22.323Z,35.30
2023-03-13T22:40:30.625Z,35.30
2023-03-13T22:43:40.253Z,35.30
2023-03-13T22:46:48.410Z,35.90
2023-03-13T22:49:56.402Z,35.30
2023-03-13T22:53:04.635Z,35.30
2023-03-13T22:56:12.978Z,35.20
2023-03-13T22:59:22.626Z,35.20
2023-03-13T23:02:30.902Z,35.20
2023-03-13T23:05:39.178Z,35.20
2023-03-13T23:08:47.198Z,35.20
2023-03-13T23:11:55.426Z,35.20
2023-03-13T23:15:05.346Z,35.20
2023-03-13T23:18:13.361Z,35.20
2023-03-13T23:21:21.217Z,35.20
2023-03-13T23:24:29.343Z,35.20
2023-03-13T23:27:37.583Z,35.20
2023-03-13T23:30:47.002Z,35.20
2023-03-13T23:33:55.135Z,35.20
2023-03-13T23:37:03.252Z,35.20
2023-03-13T23:40:12.853Z,35.20
2023-03-13T23:43:20.730Z,35.20
2023-03-13T23:46:30.310Z,35.20
2023-03-13T23:49:38.203Z,35.20
2023-03-13T23:52:46.005Z,35.20
2023-03-13T23:55:58.459Z,35.10
2023-03-13T23:59:06.377Z,35.20
